Lockport, NY

1:46 PM EDT on March 31, 2015 (GMT -0400)
Buffalo Niagara International | | Change Station
CLOSE
Current Station
Airport
Location: Buffalo,
Elevation: 702 ft
Nearby Weather Stations

Elev 702 ft 42.94 °N, 78.74 °W | Updated 23 hours ago

Overcast
Overcast
39 °F
Feels Like 34 °F
N
7
Wind Variable Wind from NE
Gusts mph

Today
High -- | Low -- °F
--% Chance of Precip.
Yesterday
High -- | Low -- °F
Precip. -- in
6:58 AM 7:39 PM
Waxing Gibbous, 88% visible
Pressure 29.80 in
Visibility 2.5 miles
Clouds Mostly Cloudy 1700 ft
Mostly Cloudy 2900 ft
Overcast 4600 ft
Windchill 34 °F
Dew Point 26 °F
Humidity 59%
Rainfall 0.00 in
Snow Depth Not available.
UV 2 out of 12
Pollen .70 out of 12
Air Quality Not available.
Flu Activity Not available.
METAR KBUF 301824Z 24018G28KT 2 1/2SM -SN BKN017 BKN029 OVC046 02/M01 A2980 RMK AO2 PK WND 24030/1758 RAE22 P0000 T00221006

More Conditions Fewer Conditions

Pressure 29.80 in
Visibility 2.5 miles
Clouds Mostly Cloudy 1700 ft
Mostly Cloudy 2900 ft
Overcast 4600 ft
Windchill 34 °F
Dew Point 26 °F
Humidity 59%
Rainfall 0.00 in
Snow Depth Not available.
UV 2 out of 12
Pollen .70 out of 12
Air Quality Not available.
Flu Activity Not available.
METAR KBUF 301824Z 24018G28KT 2 1/2SM -SN BKN017 BKN029 OVC046 02/M01 A2980 RMK AO2 PK WND 24030/1758 RAE22 P0000 T00221006

More Conditions Fewer Conditions

10-Day Weather Forecast

Almanac

Astronomy

Mar. 31, 2015 Rise Set
Actual Time
Civil Twilight
Nautical Twilight
Astronomical Twilight
Moon
Length of Visible Light
Length of Day
Tomorrow will be .
, % of the Moon is Illuminated

Today's Extremes

State Highs State Lows

Community

WunderPhotos

Upload Photos

1,809,787 photos uploaded!

WunderBlogs® & News

Nearby

Air Quality

  Air Quality AQ Index Pollutant
Not available.

Snow Depth

Station Depth Elevation

Earthquake Activity

City Distance Mag. Time & Date
Minimum magnitude displayed is 2.5.

Coastal Water Temperatures

Place Temperature

Stations

Nearby Weather Stations

Station Location Temp. Windchill Dew Point Humidity Wind Precip. Elev Updated Type